Time;durP1;ratioP1;P1;durP2;ratioP2;P2;SDS_P1;SDS_P2;PMS_P1;PMS_P2;Temp;Humidity;BMP_temperature;BMP_pressure;BME280_temperature;BME280_humidity;BME280_pressure;Samples;Min_cycle;Max_cycle;Signal;HPM_P1;HPM_P2
2022/11/30 00:01:56;;;;;;;60.60;24.63;;;7.30;99.90;;;;;;5071916;28;20309;-47
2022/11/30 00:04:22;;;;;;;65.03;26.60;;;7.30;99.90;;;;;;5072041;28;20171;-48
2022/11/30 00:06:48;;;;;;;59.90;25.05;;;7.30;99.90;;;;;;5071872;28;20190;-46
2022/11/30 00:09:14;;;;;;;60.58;25.48;;;7.30;99.90;;;;;;5071550;28;20162;-49
2022/11/30 00:11:39;;;;;;;64.75;25.63;;;7.40;99.90;;;;;;5072265;28;20166;-46
2022/11/30 00:14:05;;;;;;;48.30;19.05;;;7.30;99.90;;;;;;5071897;28;20170;-47
2022/11/30 00:16:30;;;;;;;70.30;25.70;;;7.30;99.90;;;;;;5071929;28;20162;-47
2022/11/30 00:18:56;;;;;;;71.97;25.95;;;7.30;99.90;;;;;;5071722;28;20212;-46
2022/11/30 00:21:21;;;;;;;65.40;25.73;;;7.40;99.90;;;;;;5071791;28;20170;-47
2022/11/30 00:23:49;;;;;;;63.63;26.27;;;7.30;99.90;;;;;;5071736;28;20180;-46
2022/11/30 00:26:17;;;;;;;61.88;25.00;;;7.30;99.90;;;;;;5053859;28;20639;-45
2022/11/30 00:28:46;;;;;;;71.10;26.40;;;7.30;99.90;;;;;;5071911;28;20223;-45
2022/11/30 00:31:14;;;;;;;68.85;24.88;;;7.30;99.90;;;;;;5071840;28;20194;-45
2022/11/30 00:33:41;;;;;;;73.63;26.17;;;7.40;99.90;;;;;;5072101;28;20173;-46
2022/11/30 00:36:15;;;;;;;66.75;26.10;;;7.40;99.90;;;;;;5072092;28;20224;-46
2022/11/30 00:38:41;;;;;;;72.20;26.85;;;7.40;99.90;;;;;;5071864;28;20284;-46
2022/11/30 00:41:07;;;;;;;69.25;28.50;;;7.50;99.90;;;;;;5072117;28;20184;-46
2022/11/30 00:43:33;;;;;;;72.63;26.42;;;7.50;99.90;;;;;;5071564;28;20174;-45
2022/11/30 00:45:59;;;;;;;75.60;27.73;;;7.50;99.90;;;;;;5071602;28;20169;-48
2022/11/30 00:48:24;;;;;;;81.25;29.80;;;7.50;99.90;;;;;;5071618;28;20189;-48
2022/11/30 00:50:50;;;;;;;78.80;28.35;;;7.40;99.90;;;;;;5071495;28;20189;-47
2022/11/30 00:53:16;;;;;;;88.35;28.90;;;7.40;99.90;;;;;;5071607;28;20169;-47
2022/11/30 00:55:43;;;;;;;89.55;32.20;;;7.50;99.90;;;;;;5071584;28;20208;-49
2022/11/30 00:58:08;;;;;;;89.05;29.05;;;7.30;99.90;;;;;;5071920;28;20170;-46
2022/11/30 01:00:34;;;;;;;105.88;30.30;;;7.40;99.90;;;;;;5071281;28;20216;-45
2022/11/30 01:03:01;;;;;;;100.25;30.73;;;7.30;99.90;;;;;;5071419;28;20237;-45
2022/11/30 01:05:27;;;;;;;94.47;31.65;;;7.30;99.90;;;;;;5071193;28;20170;-45
2022/11/30 01:07:53;;;;;;;111.55;32.80;;;7.40;99.90;;;;;;5071127;28;20166;-46
2022/11/30 01:10:18;;;;;;;105.57;32.55;;;7.40;99.90;;;;;;5071357;28;20162;-46
2022/11/30 01:12:44;;;;;;;107.00;32.65;;;7.40;99.90;;;;;;5071415;28;20253;-46
2022/11/30 01:15:11;;;;;;;111.97;33.22;;;7.40;99.90;;;;;;5071411;28;20221;-45
2022/11/30 01:17:37;;;;;;;106.80;31.77;;;7.40;99.90;;;;;;5071986;28;20197;-45
2022/11/30 01:20:03;;;;;;;113.00;31.65;;;7.30;99.90;;;;;;5075076;28;20241;-45
2022/11/30 01:22:29;;;;;;;106.38;32.15;;;7.40;99.90;;;;;;5075050;28;20159;-46
2022/11/30 01:24:54;;;;;;;114.93;33.25;;;7.40;99.90;;;;;;5075058;28;20177;-46
2022/11/30 01:27:20;;;;;;;120.63;33.53;;;7.40;99.90;;;;;;5075019;28;20204;-46
2022/11/30 01:29:45;;;;;;;101.47;31.80;;;7.40;99.90;;;;;;5074939;28;20166;-52
2022/11/30 01:32:11;;;;;;;116.63;31.25;;;7.40;99.90;;;;;;5074916;28;20656;-45
2022/11/30 01:34:36;;;;;;;107.50;31.15;;;7.40;99.90;;;;;;5075250;28;20621;-45
2022/11/30 01:37:02;;;;;;;105.25;29.20;;;7.50;99.90;;;;;;5074866;28;20166;-45
2022/11/30 01:39:27;;;;;;;104.00;31.27;;;7.50;99.90;;;;;;5074609;28;20214;-45
2022/11/30 01:41:53;;;;;;;115.55;31.75;;;7.50;99.90;;;;;;5074710;28;20227;-45
2022/11/30 01:44:25;;;;;;;89.43;29.15;;;7.40;99.90;;;;;;5074963;28;20174;-45
2022/11/30 01:47:01;;;;;;;105.03;28.65;;;7.50;99.90;;;;;;5074812;28;20169;-45
2022/11/30 01:49:26;;;;;;;95.25;29.92;;;7.50;99.90;;;;;;5074582;28;20248;-49
2022/11/30 01:51:58;;;;;;;104.15;27.90;;;7.40;99.90;;;;;;5074813;28;20193;-46
2022/11/30 01:54:30;;;;;;;95.20;27.60;;;7.50;99.90;;;;;;5074652;28;20528;-46
2022/11/30 01:57:03;;;;;;;102.97;30.50;;;7.50;99.90;;;;;;5074465;28;20165;-46
2022/11/30 01:59:28;;;;;;;96.13;27.10;;;7.50;99.90;;;;;;5056409;28;20689;-46
2022/11/30 02:01:55;;;;;;;101.90;29.17;;;7.50;99.90;;;;;;5074268;28;20308;-48
2022/11/30 02:04:27;;;;;;;76.55;26.88;;;7.50;99.90;;;;;;5074414;28;20652;-45
2022/11/30 02:06:55;;;;;;;83.80;27.05;;;7.50;99.90;;;;;;5074308;28;20638;-46
2022/11/30 02:09:22;;;;;;;76.18;25.63;;;7.40;99.90;;;;;;5074264;28;20212;-48
2022/11/30 02:11:48;;;;;;;73.72;24.48;;;7.50;99.90;;;;;;5074284;28;20247;-46
2022/11/30 02:14:22;;;;;;;87.95;27.23;;;7.40;99.90;;;;;;5074415;28;20267;-47
2022/11/30 02:17:12;;;;;;;71.55;24.02;;;7.50;99.90;;;;;;5074142;28;20168;-47
2022/11/30 02:19:46;;;;;;;79.78;25.13;;;7.50;99.90;;;;;;5074295;28;20262;-46
2022/11/30 02:22:26;;;;;;;80.53;25.98;;;7.50;99.90;;;;;;5073983;28;20162;-45
2022/11/30 02:24:54;;;;;;;78.35;25.85;;;7.50;99.90;;;;;;5073941;28;20162;-46
2022/11/30 02:27:29;;;;;;;76.47;25.90;;;7.60;99.90;;;;;;5073880;28;20536;-46
2022/11/30 02:30:12;;;;;;;71.35;24.10;;;7.50;99.90;;;;;;5072555;28;20174;-51
2022/11/30 02:32:52;;;;;;;64.82;22.60;;;7.50;99.90;;;;;;5074337;28;20676;-51
2022/11/30 02:35:24;;;;;;;72.35;23.05;;;7.50;99.90;;;;;;5074063;28;20184;-50
2022/11/30 02:37:52;;;;;;;60.63;21.80;;;7.50;99.90;;;;;;5073897;28;20170;-51
2022/11/30 02:40:20;;;;;;;71.40;24.67;;;7.50;99.90;;;;;;5073692;28;20209;-50
2022/11/30 02:42:47;;;;;;;69.15;23.55;;;7.50;99.90;;;;;;5073683;28;20253;-45
2022/11/30 02:45:13;;;;;;;74.07;26.65;;;7.50;99.90;;;;;;5073602;28;20694;-47
2022/11/30 02:47:54;;;;;;;72.75;23.67;;;7.50;99.90;;;;;;5073924;28;20172;-46
2022/11/30 02:50:32;;;;;;;74.70;25.98;;;7.50;99.90;;;;;;5073508;28;20176;-46
2022/11/30 02:52:58;;;;;;;84.28;27.73;;;7.50;99.90;;;;;;5073434;28;20169;-45
2022/11/30 02:55:24;;;;;;;73.68;25.17;;;7.50;99.90;;;;;;5073277;28;20224;-46
2022/11/30 02:57:49;;;;;;;84.07;27.58;;;7.50;99.90;;;;;;5073307;28;20174;-45
2022/11/30 03:00:15;;;;;;;86.28;27.48;;;7.40;99.90;;;;;;5073041;28;20225;-45
2022/11/30 03:02:41;;;;;;;91.38;28.90;;;7.50;99.90;;;;;;5074102;28;20189;-52
2022/11/30 03:05:08;;;;;;;87.40;27.35;;;7.50;99.90;;;;;;5073637;28;20634;-45
2022/11/30 03:07:33;;;;;;;89.32;29.00;;;7.40;99.90;;;;;;5073221;28;20181;-45
2022/11/30 03:09:59;;;;;;;83.43;28.83;;;7.40;99.90;;;;;;5073109;28;20166;-45
2022/11/30 03:12:25;;;;;;;90.20;28.23;;;7.50;99.90;;;;;;5073008;28;20641;-45
2022/11/30 03:14:51;;;;;;;78.55;28.52;;;7.50;99.90;;;;;;5073019;28;20199;-45
2022/11/30 03:17:17;;;;;;;91.32;28.60;;;7.50;99.90;;;;;;5072940;28;20209;-45
2022/11/30 03:19:42;;;;;;;80.95;27.25;;;7.50;99.90;;;;;;5072763;28;20212;-45
2022/11/30 03:22:08;;;;;;;89.38;29.88;;;7.40;99.90;;;;;;5073204;28;20520;-46
2022/11/30 03:24:34;;;;;;;93.80;27.60;;;7.50;99.90;;;;;;5072753;28;20245;-46
2022/11/30 03:26:59;;;;;;;92.70;27.80;;;7.60;99.90;;;;;;5072676;28;20262;-46
2022/11/30 03:29:25;;;;;;;106.03;29.77;;;7.50;99.90;;;;;;5072945;28;20257;-46
2022/11/30 03:31:51;;;;;;;108.25;31.17;;;7.60;99.90;;;;;;5072590;28;20641;-45
2022/11/30 03:34:17;;;;;;;127.00;30.45;;;7.50;99.90;;;;;;5072636;28;20256;-47
2022/11/30 03:36:42;;;;;;;127.43;30.23;;;7.60;99.90;;;;;;5072568;28;20172;-46
2022/11/30 03:39:08;;;;;;;115.32;30.38;;;7.50;99.90;;;;;;5072870;28;20669;-47
2022/11/30 03:41:34;;;;;;;111.57;30.63;;;7.60;99.90;;;;;;5072059;28;20174;-45
2022/11/30 03:44:00;;;;;;;96.18;29.80;;;7.50;99.90;;;;;;5072369;28;20166;-47
2022/11/30 03:46:26;;;;;;;78.20;27.58;;;7.60;99.90;;;;;;5072389;28;20166;-47
2022/11/30 03:48:52;;;;;;;82.40;28.27;;;7.50;99.90;;;;;;5072570;28;20173;-46
2022/11/30 03:51:18;;;;;;;80.38;28.73;;;7.50;99.90;;;;;;5072230;28;20200;-45
2022/11/30 03:53:44;;;;;;;90.32;28.67;;;7.60;99.90;;;;;;5072232;28;20162;-47
2022/11/30 03:56:10;;;;;;;90.03;29.88;;;7.60;99.90;;;;;;5072539;28;20211;-46
2022/11/30 03:58:36;;;;;;;84.70;29.05;;;7.60;99.90;;;;;;5072718;28;20201;-46
2022/11/30 04:01:22;;;;;;;91.97;28.85;;;7.60;99.90;;;;;;5071998;28;20228;-46
2022/11/30 04:03:49;;;;;;;89.80;28.75;;;7.70;99.90;;;;;;5072285;28;20169;-49
2022/11/30 04:06:14;;;;;;;90.55;29.20;;;7.60;99.90;;;;;;5072102;28;20162;-46
2022/11/30 04:08:41;;;;;;;84.65;30.02;;;7.70;99.90;;;;;;5060878;28;20540;-47
2022/11/30 04:11:07;;;;;;;89.32;28.80;;;7.70;99.90;;;;;;5052437;28;20229;-47
2022/11/30 04:13:35;;;;;;;82.57;29.92;;;7.70;99.90;;;;;;5051951;28;20158;-47
2022/11/30 04:16:01;;;;;;;82.25;28.35;;;7.70;99.90;;;;;;5051806;28;20159;-47
2022/11/30 04:18:27;;;;;;;84.63;29.25;;;7.70;99.90;;;;;;5051725;28;20176;-49
2022/11/30 04:20:55;;;;;;;81.25;29.05;;;7.70;99.90;;;;;;5051883;28;20209;-48
2022/11/30 04:23:21;;;;;;;86.18;26.85;;;7.70;99.90;;;;;;5051885;28;20171;-48
2022/11/30 04:25:47;;;;;;;74.82;27.38;;;7.70;99.90;;;;;;5051621;28;20250;-46
2022/11/30 04:28:15;;;;;;;75.30;28.88;;;7.80;99.90;;;;;;5051967;28;20228;-48
2022/11/30 04:30:41;;;;;;;82.07;27.88;;;7.70;99.90;;;;;;5051675;28;20175;-47
2022/11/30 04:33:06;;;;;;;81.47;29.48;;;7.70;99.90;;;;;;5052131;28;20163;-47
2022/11/30 04:35:33;;;;;;;78.35;28.20;;;7.70;99.90;;;;;;5051682;28;20182;-46
2022/11/30 04:37:59;;;;;;;76.57;26.70;;;7.60;99.90;;;;;;5051637;28;20170;-46
2022/11/30 04:40:25;;;;;;;66.82;28.23;;;7.60;99.90;;;;;;5051460;28;20225;-46
2022/11/30 04:42:51;;;;;;;66.57;27.92;;;7.60;99.90;;;;;;5051257;28;20162;-46
2022/11/30 04:45:16;;;;;;;57.25;24.92;;;7.70;99.90;;;;;;5051565;28;20170;-46
2022/11/30 04:47:42;;;;;;;61.63;26.02;;;7.70;99.90;;;;;;5051183;28;20537;-46
2022/11/30 04:50:08;;;;;;;60.28;25.98;;;7.70;99.90;;;;;;5051461;28;20162;-46
2022/11/30 04:52:34;;;;;;;59.85;25.30;;;7.70;99.90;;;;;;5051593;28;20217;-46
2022/11/30 04:55:00;;;;;;;61.50;24.50;;;7.60;99.90;;;;;;5055378;28;20646;-47
2022/11/30 04:57:26;;;;;;;50.95;24.92;;;7.60;99.90;;;;;;5055069;28;20576;-47
2022/11/30 04:59:52;;;;;;;51.28;23.70;;;7.70;99.90;;;;;;5055565;28;20206;-47
2022/11/30 05:02:17;;;;;;;48.75;25.13;;;7.60;99.90;;;;;;5055611;28;20178;-48
2022/11/30 05:04:43;;;;;;;47.30;22.67;;;7.60;99.90;;;;;;5055496;28;20212;-46
2022/11/30 05:07:08;;;;;;;45.97;22.27;;;7.60;99.90;;;;;;5055803;28;20170;-47
2022/11/30 05:09:34;;;;;;;44.50;21.80;;;7.50;99.90;;;;;;5055287;28;20224;-46
2022/11/30 05:12:00;;;;;;;52.45;23.95;;;7.50;99.90;;;;;;5055349;28;20235;-47
2022/11/30 05:14:25;;;;;;;53.10;24.63;;;7.60;99.90;;;;;;5055302;28;20171;-46
2022/11/30 05:16:51;;;;;;;62.05;26.20;;;7.50;99.90;;;;;;5055287;28;20171;-47
2022/11/30 05:19:16;;;;;;;65.25;26.35;;;7.50;99.90;;;;;;5055391;28;20207;-49
2022/11/30 05:21:43;;;;;;;49.83;24.08;;;7.50;99.90;;;;;;5055024;28;20630;-45
2022/11/30 05:24:08;;;;;;;59.83;26.73;;;7.40;99.90;;;;;;5055399;28;20501;-45
2022/11/30 05:26:35;;;;;;;54.53;27.05;;;7.40;99.90;;;;;;5055004;28;20197;-47
2022/11/30 05:29:01;;;;;;;48.15;23.58;;;7.40;99.90;;;;;;5054745;28;20170;-47
2022/11/30 05:31:27;;;;;;;51.95;25.00;;;7.50;99.90;;;;;;5054865;28;20166;-48
2022/11/30 05:33:53;;;;;;;45.13;23.92;;;7.40;99.90;;;;;;5054786;28;20654;-48
2022/11/30 05:36:19;;;;;;;54.30;25.63;;;7.40;99.90;;;;;;5054144;28;20170;-48
2022/11/30 05:38:45;;;;;;;47.35;24.80;;;7.40;99.90;;;;;;5036340;28;20674;-46
2022/11/30 05:41:10;;;;;;;64.20;24.77;;;7.40;99.90;;;;;;5054238;28;20171;-46
2022/11/30 05:43:36;;;;;;;49.03;24.42;;;7.40;99.90;;;;;;5054474;28;20173;-46
2022/11/30 05:46:04;;;;;;;48.45;24.17;;;7.40;99.90;;;;;;5054114;28;20561;-46
2022/11/30 05:48:30;;;;;;;46.53;24.45;;;7.30;99.90;;;;;;5054053;28;20167;-48
2022/11/30 05:51:07;;;;;;;46.40;24.17;;;7.40;99.90;;;;;;5053994;28;20169;-47
2022/11/30 05:53:33;;;;;;;54.17;24.85;;;7.30;99.90;;;;;;5054788;28;20260;-46
2022/11/30 05:56:08;;;;;;;46.55;24.58;;;7.30;99.90;;;;;;5054529;28;20602;-47
2022/11/30 05:58:34;;;;;;;43.15;24.45;;;7.30;99.90;;;;;;5054587;28;20206;-46
2022/11/30 06:01:00;;;;;;;48.42;25.08;;;7.20;99.90;;;;;;5054288;28;20637;-48
2022/11/30 06:03:28;;;;;;;47.53;25.38;;;7.30;99.90;;;;;;5054018;28;20166;-46
2022/11/30 06:05:54;;;;;;;49.13;24.10;;;7.30;99.90;;;;;;5054491;28;20258;-47
2022/11/30 06:08:19;;;;;;;49.92;25.80;;;7.30;99.90;;;;;;5054118;28;20249;-46
2022/11/30 06:10:45;;;;;;;41.03;23.17;;;7.30;99.90;;;;;;5054308;28;20171;-48
2022/11/30 06:13:11;;;;;;;43.28;25.15;;;7.30;99.90;;;;;;5054211;28;20618;-45
2022/11/30 06:15:38;;;;;;;43.47;23.38;;;7.30;99.90;;;;;;5054471;28;20174;-47
2022/11/30 06:18:05;;;;;;;44.55;23.17;;;7.20;99.90;;;;;;5054175;28;20163;-46
2022/11/30 06:20:30;;;;;;;48.78;24.13;;;7.30;99.90;;;;;;5053891;28;20241;-46
2022/11/30 06:22:56;;;;;;;40.35;22.33;;;7.30;99.90;;;;;;5054080;28;20195;-45
2022/11/30 06:25:22;;;;;;;37.63;21.65;;;7.30;99.90;;;;;;5052770;28;20204;-43
2022/11/30 06:27:48;;;;;;;40.92;22.00;;;7.40;99.90;;;;;;5054805;28;20676;-46
2022/11/30 06:30:14;;;;;;;38.72;22.15;;;7.30;99.90;;;;;;5061204;28;20261;-44
2022/11/30 06:32:43;;;;;;;37.90;22.13;;;7.20;99.90;;;;;;5052054;28;20174;-44
2022/11/30 06:35:08;;;;;;;39.65;23.70;;;7.30;99.90;;;;;;5052339;28;20229;-44
2022/11/30 06:37:34;;;;;;;41.00;22.50;;;7.20;99.90;;;;;;5052372;28;20574;-44
2022/11/30 06:40:00;;;;;;;40.70;24.10;;;7.20;99.90;;;;;;5052021;28;20649;-48
2022/11/30 06:42:28;;;;;;;41.55;23.13;;;7.30;99.90;;;;;;5051813;28;20178;-47
2022/11/30 06:44:54;;;;;;;41.17;21.75;;;7.20;99.90;;;;;;5051715;28;20654;-47
2022/11/30 06:47:20;;;;;;;40.17;21.98;;;7.20;99.90;;;;;;5051773;28;20170;-43
2022/11/30 06:49:45;;;;;;;38.75;21.50;;;7.20;99.90;;;;;;5051724;28;20536;-43
2022/11/30 06:52:11;;;;;;;44.80;23.25;;;7.20;99.90;;;;;;5051579;28;20524;-46
2022/11/30 06:54:36;;;;;;;37.05;21.02;;;7.20;99.90;;;;;;5051684;28;20665;-46
2022/11/30 06:57:02;;;;;;;42.88;23.23;;;7.20;99.90;;;;;;5051439;28;20531;-44
2022/11/30 06:59:28;;;;;;;39.80;22.38;;;7.20;99.90;;;;;;5051578;28;20696;-46
2022/11/30 07:01:53;;;;;;;37.08;22.15;;;7.20;99.90;;;;;;5033486;28;20275;-58
2022/11/30 07:04:19;;;;;;;42.58;23.27;;;7.10;99.90;;;;;;5051365;28;20171;-44
2022/11/30 07:06:44;;;;;;;45.17;24.13;;;7.10;99.90;;;;;;5051425;28;20167;-49
2022/11/30 07:09:12;;;;;;;37.72;21.70;;;7.10;99.90;;;;;;5033473;28;20421;-46
2022/11/30 07:11:37;;;;;;;41.10;21.83;;;7.10;99.90;;;;;;5051972;28;20582;-44
2022/11/30 07:14:03;;;;;;;37.38;22.02;;;7.10;99.90;;;;;;5051294;28;20246;-46
2022/11/30 07:16:28;;;;;;;42.60;22.33;;;7.00;99.90;;;;;;5050476;28;20489;-46
2022/11/30 07:18:54;;;;;;;38.47;22.13;;;7.00;99.90;;;;;;5033225;28;20216;-49
2022/11/30 07:21:19;;;;;;;40.90;22.15;;;6.90;99.90;;;;;;5051223;28;20531;-47
2022/11/30 07:26:29;;;;;;;39.97;23.83;;;6.90;99.90;;;;;;5051237;28;20657;-47
2022/11/30 07:28:58;;;;;;;41.20;23.35;;;7.00;99.90;;;;;;5051008;28;20178;-47
2022/11/30 07:31:29;;;;;;;39.50;22.67;;;7.00;99.90;;;;;;5051325;28;20171;-46
2022/11/30 07:33:56;;;;;;;39.60;22.98;;;6.90;99.90;;;;;;5050958;28;20634;-45
2022/11/30 07:36:23;;;;;;;43.50;24.42;;;6.90;99.90;;;;;;5050939;28;20177;-45
2022/11/30 07:38:49;;;;;;;36.42;22.08;;;6.90;99.90;;;;;;5050612;28;20491;-45
2022/11/30 07:41:14;;;;;;;37.60;22.00;;;6.80;99.90;;;;;;5050753;28;20217;-46
2022/11/30 07:43:40;;;;;;;40.80;23.98;;;6.80;99.90;;;;;;5069292;28;20181;-46
2022/11/30 07:46:06;;;;;;;39.95;22.85;;;6.80;99.90;;;;;;5070898;28;20173;-45
2022/11/30 07:48:32;;;;;;;37.65;22.70;;;6.90;99.90;;;;;;5070532;28;20633;-45
2022/11/30 07:51:06;;;;;;;36.33;21.38;;;6.90;99.90;;;;;;5070716;28;20212;-44
2022/11/30 07:53:32;;;;;;;41.90;23.25;;;6.90;99.90;;;;;;5070691;28;20178;-47
2022/11/30 07:56:03;;;;;;;36.28;22.70;;;7.00;99.90;;;;;;5070476;28;20172;-47
2022/11/30 07:58:29;;;;;;;37.28;21.45;;;6.90;99.90;;;;;;5070517;28;20591;-45
2022/11/30 08:01:02;;;;;;;38.67;21.98;;;7.00;99.90;;;;;;5070385;28;20232;-44
2022/11/30 08:03:27;;;;;;;43.35;22.45;;;7.00;99.90;;;;;;5070522;28;20223;-46
2022/11/30 08:05:57;;;;;;;36.45;21.10;;;6.90;99.90;;;;;;5070033;28;20165;-44
2022/11/30 08:08:23;;;;;;;38.58;21.13;;;7.00;99.90;;;;;;5070189;28;20249;-45
2022/11/30 08:10:49;;;;;;;37.08;21.98;;;7.00;99.90;;;;;;5069111;28;20241;-44
2022/11/30 08:13:14;;;;;;;37.40;22.30;;;7.00;99.90;;;;;;5070198;28;20194;-46
2022/11/30 08:15:40;;;;;;;39.78;21.33;;;7.00;99.90;;;;;;5069811;28;20162;-47
2022/11/30 08:18:05;;;;;;;37.13;23.25;;;7.00;99.90;;;;;;5070364;28;20224;-46
2022/11/30 08:20:31;;;;;;;35.65;19.70;;;7.00;99.90;;;;;;5069750;28;20217;-43
2022/11/30 08:22:57;;;;;;;36.00;20.20;;;7.00;99.90;;;;;;5068925;28;20205;-47
2022/11/30 08:25:23;;;;;;;36.30;20.02;;;7.00;99.90;;;;;;5069964;28;20241;-46
2022/11/30 08:27:48;;;;;;;39.22;21.35;;;7.00;99.90;;;;;;5069471;28;20183;-44
2022/11/30 08:30:14;;;;;;;39.15;20.77;;;7.00;99.90;;;;;;5070094;28;20158;-45
2022/11/30 08:32:40;;;;;;;34.50;19.88;;;7.10;99.90;;;;;;5069678;28;20162;-45
2022/11/30 08:35:06;;;;;;;36.25;20.40;;;7.00;99.90;;;;;;5052440;28;20173;-45
2022/11/30 08:37:34;;;;;;;36.13;19.35;;;7.10;99.90;;;;;;5069806;28;20181;-43
2022/11/30 08:39:59;;;;;;;36.10;20.35;;;7.00;99.90;;;;;;5069642;28;20206;-45
2022/11/30 08:42:26;;;;;;;34.30;20.20;;;7.10;99.90;;;;;;5069690;28;20531;-44
2022/11/30 08:44:52;;;;;;;34.03;20.25;;;7.10;99.90;;;;;;5069889;28;20169;-45
2022/11/30 08:47:17;;;;;;;37.33;19.30;;;7.10;99.90;;;;;;5069474;28;20166;-44
2022/11/30 08:49:43;;;;;;;36.35;18.98;;;7.10;99.90;;;;;;5069747;28;20612;-47
2022/11/30 08:52:08;;;;;;;35.92;19.67;;;7.20;99.90;;;;;;5069546;28;20695;-47
2022/11/30 08:54:34;;;;;;;37.55;21.08;;;7.10;99.90;;;;;;5069970;28;20180;-46
2022/11/30 08:56:59;;;;;;;37.20;19.85;;;7.10;99.90;;;;;;5069371;28;20217;-47
2022/11/30 08:59:25;;;;;;;34.20;20.42;;;7.10;99.90;;;;;;5069556;28;20215;-45
2022/11/30 09:01:50;;;;;;;34.60;19.98;;;7.10;99.90;;;;;;5069066;28;20288;-46
2022/11/30 09:04:16;;;;;;;35.78;20.85;;;7.10;99.90;;;;;;5069545;28;20485;-44
2022/11/30 09:06:42;;;;;;;36.22;20.40;;;7.10;99.90;;;;;;5069842;28;20579;-44
2022/11/30 09:09:07;;;;;;;36.15;21.33;;;7.10;99.90;;;;;;5068907;28;20580;-43
2022/11/30 09:11:33;;;;;;;37.03;19.85;;;7.10;99.90;;;;;;5067893;28;20163;-44
2022/11/30 09:14:00;;;;;;;33.35;19.58;;;7.10;99.90;;;;;;5067893;28;20173;-45
2022/11/30 09:16:27;;;;;;;40.08;22.23;;;7.10;99.90;;;;;;5069437;28;20198;-46
2022/11/30 09:18:53;;;;;;;37.90;22.48;;;7.10;99.90;;;;;;5067747;28;20622;-46
2022/11/30 09:21:21;;;;;;;34.95;20.85;;;7.10;99.90;;;;;;5068176;28;20224;-44
2022/11/30 09:23:48;;;;;;;37.10;21.38;;;7.10;99.90;;;;;;5068103;28;20162;-45
2022/11/30 09:26:16;;;;;;;34.08;20.67;;;7.10;99.90;;;;;;5068103;28;20654;-46
2022/11/30 09:28:43;;;;;;;41.60;21.83;;;7.10;99.90;;;;;;5067733;28;20196;-43
2022/11/30 09:31:17;;;;;;;36.38;22.52;;;7.10;99.90;;;;;;5067769;28;20228;-45
2022/11/30 09:33:44;;;;;;;39.00;20.38;;;7.10;99.90;;;;;;5067637;28;20223;-44
2022/11/30 09:36:12;;;;;;;40.50;23.63;;;7.00;99.90;;;;;;5049955;28;20224;-44
2022/11/30 09:38:38;;;;;;;42.60;23.13;;;7.10;99.90;;;;;;5068757;28;20231;-46
2022/11/30 09:41:12;;;;;;;42.20;23.85;;;6.60;99.90;;;;;;5072732;28;20177;-45
2022/11/30 09:44:16;;;;;;;37.63;21.60;;;7.10;99.90;;;;;;5072813;28;20252;-46
2022/11/30 09:46:53;;;;;;;43.90;22.92;;;7.10;99.90;;;;;;5071433;28;20638;-46
2022/11/30 09:49:32;;;;;;;41.53;23.45;;;7.20;99.90;;;;;;5071403;28;20528;-45
2022/11/30 09:52:03;;;;;;;40.60;21.88;;;7.10;99.90;;;;;;5071179;28;20245;-45
2022/11/30 09:54:47;;;;;;;46.30;25.40;;;7.10;99.90;;;;;;5071623;28;20192;-45
2022/11/30 09:57:26;;;;;;;40.97;23.10;;;7.20;99.90;;;;;;5072024;28;20656;-45
2022/11/30 09:59:58;;;;;;;41.25;24.23;;;7.10;99.90;;;;;;5071403;28;20226;-46
2022/11/30 10:02:39;;;;;;;39.90;23.52;;;7.10;99.90;;;;;;5071378;28;20506;-45
2022/11/30 10:05:15;;;;;;;41.42;23.08;;;7.10;99.90;;;;;;5072813;28;20259;-46
2022/11/30 10:08:19;;;;;;;38.80;23.40;;;7.10;99.90;;;;;;5072248;28;20170;-45
2022/11/30 10:11:31;;;;;;;38.67;22.42;;;7.10;99.90;;;;;;5017310;28;20209;-45
2022/11/30 10:14:11;;;;;;;39.78;21.92;;;7.00;99.90;;;;;;5062280;28;20192;-45
2022/11/30 10:17:18;;;;;;;43.45;21.80;;;7.10;99.90;;;;;;5072772;28;20191;-47
2022/11/30 10:19:52;;;;;;;38.85;23.08;;;7.10;99.90;;;;;;5025295;28;20225;-45
2022/11/30 10:22:27;;;;;;;38.42;22.00;;;7.00;99.90;;;;;;5072361;28;20169;-45
2022/11/30 10:25:14;;;;;;;42.10;23.27;;;7.10;99.90;;;;;;5072189;28;20530;-46
2022/11/30 10:27:45;;;;;;;36.72;21.15;;;7.10;99.90;;;;;;5072626;28;20499;-46
2022/11/30 10:30:25;;;;;;;40.75;23.67;;;7.10;99.90;;;;;;5073869;28;20163;-46
2022/11/30 10:32:53;;;;;;;37.70;21.58;;;7.00;99.90;;;;;;5074074;28;20177;-46
2022/11/30 10:35:40;;;;;;;40.47;22.42;;;7.10;99.90;;;;;;5074068;28;20173;-46
2022/11/30 10:38:24;;;;;;;41.17;23.65;;;7.00;99.90;;;;;;5074154;28;20522;-46
2022/11/30 10:41:15;;;;;;;45.05;23.52;;;7.10;99.90;;;;;;5073680;28;20629;-46
2022/11/30 10:43:53;;;;;;;49.05;23.38;;;7.10;99.90;;;;;;5072754;28;20189;-47
2022/11/30 10:46:28;;;;;;;45.45;24.30;;;7.10;99.90;;;;;;5073842;28;20174;-46
2022/11/30 10:49:00;;;;;;;39.65;22.60;;;7.10;99.90;;;;;;5073537;28;20244;-45
2022/11/30 10:51:26;;;;;;;39.13;22.73;;;7.10;99.90;;;;;;5072280;28;20589;-46
2022/11/30 10:53:52;;;;;;;38.30;22.05;;;7.20;99.90;;;;;;5073761;28;20193;-46
2022/11/30 10:56:17;;;;;;;37.03;20.83;;;7.20;99.90;;;;;;5073250;28;20627;-46
2022/11/30 10:59:03;;;;;;;43.58;22.52;;;7.20;99.90;;;;;;5073103;28;20177;-46
2022/11/30 11:01:38;;;;;;;45.83;23.45;;;7.20;99.90;;;;;;5073152;28;20304;-46
2022/11/30 11:04:19;;;;;;;38.80;21.67;;;7.20;99.90;;;;;;5073603;28;20527;-46
2022/11/30 11:06:51;;;;;;;36.70;20.90;;;7.20;99.90;;;;;;5073320;28;20227;-46
2022/11/30 11:09:28;;;;;;;37.10;21.90;;;7.10;99.90;;;;;;5073409;28;20174;-45
2022/11/30 11:11:59;;;;;;;42.15;23.30;;;7.10;99.90;;;;;;5073006;28;20189;-46
2022/11/30 11:14:27;;;;;;;36.88;22.15;;;7.20;99.90;;;;;;5073017;28;20227;-46
2022/11/30 11:17:00;;;;;;;43.65;23.25;;;7.20;99.90;;;;;;5073123;28;20566;-46
2022/11/30 11:19:37;;;;;;;39.75;22.92;;;7.20;99.90;;;;;;5073013;28;20205;-47
2022/11/30 11:22:21;;;;;;;46.05;26.17;;;7.20;99.90;;;;;;5073286;28;20660;-47
2022/11/30 11:24:49;;;;;;;43.88;24.45;;;7.20;99.90;;;;;;5073033;28;20249;-51
2022/11/30 11:27:32;;;;;;;42.67;23.60;;;7.20;99.90;;;;;;5072716;28;20215;-47
2022/11/30 11:30:00;;;;;;;40.83;21.70;;;7.20;99.90;;;;;;5073025;28;20742;-46
2022/11/30 11:32:26;;;;;;;46.80;25.20;;;7.10;99.90;;;;;;5072816;28;20173;-47
2022/11/30 11:34:52;;;;;;;42.65;23.45;;;7.20;99.90;;;;;;5072756;28;20265;-46
2022/11/30 11:37:27;;;;;;;42.40;23.98;;;7.30;99.90;;;;;;5072543;28;20622;-46
2022/11/30 11:39:59;;;;;;;39.08;24.50;;;7.20;99.90;;;;;;5072627;28;20222;-46
2022/11/30 11:42:28;;;;;;;45.17;24.45;;;7.30;99.90;;;;;;5072587;28;20166;-46
2022/11/30 11:44:57;;;;;;;45.53;24.90;;;7.20;99.90;;;;;;5072322;28;20694;-46
2022/11/30 11:47:35;;;;;;;41.47;25.15;;;7.20;99.90;;;;;;5072313;28;20223;-47
2022/11/30 11:50:23;;;;;;;45.08;25.80;;;7.30;99.90;;;;;;5072164;28;20177;-46
2022/11/30 11:52:49;;;;;;;46.00;26.98;;;7.40;99.90;;;;;;5072287;28;20220;-46
2022/11/30 11:55:19;;;;;;;52.10;27.55;;;7.30;99.90;;;;;;5072297;28;20166;-48
2022/11/30 11:57:59;;;;;;;44.65;25.65;;;7.30;99.90;;;;;;5072320;28;20170;-46
2022/11/30 12:00:25;;;;;;;49.63;25.98;;;7.30;99.90;;;;;;5071856;28;20220;-46
2022/11/30 12:03:02;;;;;;;47.08;27.13;;;7.20;99.90;;;;;;5071782;28;20166;-46
2022/11/30 12:05:34;;;;;;;45.22;25.85;;;7.20;99.90;;;;;;5072034;28;20539;-46
2022/11/30 12:08:45;;;;;;;54.92;28.40;;;7.30;99.90;;;;;;5071972;28;20250;-47
2022/11/30 12:11:24;;;;;;;46.08;26.23;;;7.30;99.90;;;;;;4971395;28;20177;-46
2022/11/30 12:13:52;;;;;;;48.28;25.20;;;7.30;99.90;;;;;;5049546;28;20546;-47
2022/11/30 12:16:32;;;;;;;52.30;26.65;;;7.30;99.90;;;;;;5071792;28;20676;-46
2022/11/30 12:19:01;;;;;;;54.60;27.30;;;7.30;99.90;;;;;;5071803;28;20664;-46
2022/11/30 12:21:54;;;;;;;47.47;25.35;;;7.30;99.90;;;;;;5071817;28;20209;-46
2022/11/30 12:24:37;;;;;;;47.70;26.13;;;7.30;99.90;;;;;;5071674;28;20595;-46
2022/11/30 12:27:21;;;;;;;55.45;27.98;;;7.20;99.90;;;;;;5072121;28;20174;-46
2022/11/30 12:30:24;;;;;;;51.00;26.30;;;7.30;99.90;;;;;;5071697;28;20166;-46
2022/11/30 12:33:18;;;;;;;47.92;25.85;;;7.30;99.90;;;;;;5071948;28;20234;-46
2022/11/30 12:36:00;;;;;;;42.97;24.48;;;7.30;99.90;;;;;;5071915;28;20181;-46
2022/11/30 12:38:46;;;;;;;46.50;24.58;;;7.20;99.90;;;;;;5071628;28;20172;-48
2022/11/30 12:41:37;;;;;;;51.90;26.58;;;7.30;99.90;;;;;;5071604;28;20199;-46
2022/11/30 12:44:37;;;;;;;46.70;24.70;;;7.30;99.90;;;;;;5072184;28;20174;-46
2022/11/30 12:47:26;;;;;;;42.78;21.48;;;7.30;99.90;;;;;;5072159;28;20212;-46
2022/11/30 12:50:03;;;;;;;47.08;25.80;;;7.20;99.90;;;;;;5071479;28;20249;-46
2022/11/30 12:52:57;;;;;;;48.42;25.15;;;7.30;99.90;;;;;;5071479;28;20180;-47